Terminal Aerodrome Forecast
Issued by NWS

Home | Current Version | Previous Version | Text Only | Print | Product List | Glossary On
Versions: 1 2 3 4 5 6 7 8 9 10 11 12 13 14 15 16 17 18 19 20 21 22 23 24 25 26 27 28 29 30 31 32 33 34 35 36 37 38 39 40 41 42
000
FTUS46 KPQR 020732 AAA
TAFONP
TAF AMD
KONP 020732Z 0208/0306 34005KT 6SM BR OVC007
     FM021100 VRB02KT 3SM BR OVC004
     FM021500 01003KT 5SM BR OVC008
     FM021800 33008KT P6SM OVC015
     FM022200 34010KT P6SM SCT018
     FM030200 32007KT 4SM BR OVC010=

USA.gov is the U.S. government's official web portal to all federal, state and local government web resources and services.